createdAt,value
2016-12-31T00:00:42.547Z,19.58
2016-12-31T00:01:52.877Z,19.48
2016-12-31T00:03:02.829Z,19.38
2016-12-31T00:04:13.552Z,19.38
2016-12-31T00:05:23.897Z,19.29
2016-12-31T00:06:34.225Z,19.29
2016-12-31T00:07:44.169Z,19.38
2016-12-31T00:08:54.921Z,19.29
2016-12-31T00:10:05.658Z,19.48
2016-12-31T00:11:16.387Z,19.38
2016-12-31T00:12:26.714Z,19.29
2016-12-31T00:13:37.449Z,19.48
2016-12-31T00:14:48.186Z,19.38
2016-12-31T00:15:59.379Z,19.38
2016-12-31T00:17:08.928Z,19.29
2016-12-31T00:18:19.248Z,19.48
2016-12-31T00:19:29.181Z,19.38
2016-12-31T00:20:39.518Z,19.29
2016-12-31T00:21:49.834Z,19.38
2016-12-31T00:23:00.560Z,19.58
2016-12-31T00:24:10.899Z,19.67
2016-12-31T00:25:21.220Z,19.38
2016-12-31T00:26:31.552Z,19.38
2016-12-31T00:27:41.898Z,19.29
2016-12-31T00:28:52.243Z,19.2
2016-12-31T00:30:02.557Z,19.29
2016-12-31T00:31:13.283Z,19.29
2016-12-31T00:32:23.600Z,19.2
2016-12-31T00:33:33.936Z,19.48
2016-12-31T00:34:44.269Z,19
2016-12-31T00:35:54.980Z,19.48
2016-12-31T00:37:04.919Z,19.29
2016-12-31T00:38:15.642Z,19.2
2016-12-31T00:39:26.397Z,19
2016-12-31T00:40:36.321Z,19.2
2016-12-31T00:41:46.647Z,19.29
2016-12-31T00:42:57.386Z,19.38
2016-12-31T00:44:07.305Z,19.1
2016-12-31T00:45:18.081Z,19.1
2016-12-31T00:46:28.800Z,19.58
2016-12-31T00:47:39.514Z,19.29
2016-12-31T00:48:49.876Z,19.2
2016-12-31T00:50:00.204Z,19.2
2016-12-31T00:51:10.538Z,19.2
2016-12-31T00:52:21.354Z,19.2
2016-12-31T00:53:30.900Z,19.38
2016-12-31T00:54:40.736Z,19.29
2016-12-31T00:55:51.453Z,19
2016-12-31T00:57:01.367Z,19.48
2016-12-31T00:58:11.693Z,19.2
2016-12-31T00:59:22.407Z,19.1
2016-12-31T01:00:33.121Z,19.29
2016-12-31T01:01:43.450Z,19.2
2016-12-31T01:02:53.373Z,19.2
2016-12-31T01:04:02.917Z,19.29
2016-12-31T01:05:13.239Z,19.1
2016-12-31T01:06:23.952Z,19.29
2016-12-31T01:07:34.283Z,19.2
2016-12-31T01:08:45.012Z,19.48
2016-12-31T01:09:55.335Z,19.29
2016-12-31T01:11:06.058Z,19.58
2016-12-31T01:12:16.793Z,19.2
2016-12-31T01:13:27.512Z,19.1
2016-12-31T01:14:38.219Z,19.1
2016-12-31T01:15:48.542Z,19.38
2016-12-31T01:16:58.074Z,19.38
2016-12-31T01:18:08.782Z,19.2
2016-12-31T01:19:19.111Z,19.29
2016-12-31T01:20:29.438Z,19.2
2016-12-31T01:21:39.761Z,19.1
2016-12-31T01:22:49.681Z,19.29
2016-12-31T01:24:00.004Z,19.1
2016-12-31T01:25:10.315Z,19.2
2016-12-31T01:26:21.035Z,19.2
2016-12-31T01:27:31.748Z,19.1
2016-12-31T01:28:42.097Z,19.29
2016-12-31T01:29:52.807Z,19.29
2016-12-31T01:31:03.134Z,19.1
2016-12-31T01:32:13.864Z,19.1
2016-12-31T01:33:24.677Z,19.1
2016-12-31T01:34:35.000Z,19.29
2016-12-31T01:35:45.323Z,19.29
2016-12-31T01:36:55.639Z,19
2016-12-31T01:38:05.591Z,19.29
2016-12-31T01:39:15.918Z,19.1
2016-12-31T01:40:26.638Z,19.2
2016-12-31T01:41:36.965Z,19.29
2016-12-31T01:42:46.897Z,19.1
2016-12-31T01:43:57.604Z,19.2
2016-12-31T01:45:07.521Z,19.2
2016-12-31T01:46:17.832Z,19.2
2016-12-31T01:47:28.149Z,19.2
2016-12-31T01:48:38.891Z,19.29
2016-12-31T01:49:49.609Z,19.1
2016-12-31T01:50:59.540Z,19.1
2016-12-31T01:52:10.302Z,19.29
2016-12-31T01:53:21.022Z,19.1
2016-12-31T01:54:31.348Z,19.1
2016-12-31T01:55:42.066Z,19.1
2016-12-31T01:56:51.588Z,19.1
2016-12-31T01:58:01.912Z,19.1
2016-12-31T01:59:12.232Z,19.2
2016-12-31T02:00:22.555Z,19.1
2016-12-31T02:01:33.265Z,19.1
2016-12-31T02:02:43.981Z,19.2
2016-12-31T02:03:54.302Z,19.2
2016-12-31T02:05:04.628Z,19.1
2016-12-31T02:06:15.342Z,19
2016-12-31T02:07:26.059Z,18.91
2016-12-31T02:08:36.385Z,19.1
2016-12-31T02:09:46.939Z,19
2016-12-31T02:10:56.873Z,19
2016-12-31T02:12:07.217Z,19
2016-12-31T02:13:17.585Z,19
2016-12-31T02:14:27.887Z,19
2016-12-31T02:15:38.209Z,19.1
2016-12-31T02:16:48.525Z,19.38
2016-12-31T02:17:58.843Z,19.2
2016-12-31T02:19:09.166Z,19
2016-12-31T02:20:19.883Z,19.2
2016-12-31T02:21:30.606Z,19.2
2016-12-31T02:22:41.015Z,19.1
2016-12-31T02:23:51.748Z,19.2
2016-12-31T02:25:02.075Z,18.91
2016-12-31T02:26:12.404Z,19.1
2016-12-31T02:27:23.137Z,19.1
2016-12-31T02:28:33.448Z,18.91
2016-12-31T02:29:44.186Z,18.91
2016-12-31T02:30:53.713Z,18.91
2016-12-31T02:32:03.647Z,18.91
2016-12-31T02:33:13.971Z,19
2016-12-31T02:34:24.298Z,18.71
2016-12-31T02:35:35.029Z,18.71
2016-12-31T02:36:45.342Z,18.91
2016-12-31T02:37:55.675Z,18.91
2016-12-31T02:39:05.991Z,19.2
2016-12-31T02:40:16.311Z,19
2016-12-31T02:41:27.031Z,18.91
2016-12-31T02:42:37.344Z,18.81
2016-12-31T02:43:47.662Z,18.71
2016-12-31T02:44:57.984Z,18.71
2016-12-31T02:46:08.301Z,18.71
2016-12-31T02:47:19.018Z,18.81
2016-12-31T02:48:29.341Z,18.91
2016-12-31T02:49:39.265Z,18.91
2016-12-31T02:50:49.982Z,18.81
2016-12-31T02:52:00.295Z,18.81
2016-12-31T02:53:11.005Z,18.81
2016-12-31T02:54:21.715Z,18.91
2016-12-31T02:55:32.430Z,18.91
2016-12-31T02:56:42.398Z,18.91
2016-12-31T02:57:51.588Z,18.91
2016-12-31T02:59:01.905Z,18.81
2016-12-31T03:00:11.834Z,18.91
2016-12-31T03:01:21.754Z,18.91
2016-12-31T03:02:32.470Z,18.81
2016-12-31T03:03:43.226Z,18.91
2016-12-31T03:04:53.149Z,18.81
2016-12-31T03:06:03.459Z,18.81
2016-12-31T03:07:13.776Z,19
2016-12-31T03:08:24.490Z,18.71
2016-12-31T03:09:34.800Z,18.71
2016-12-31T03:10:44.733Z,18.81
2016-12-31T03:11:55.056Z,18.71
2016-12-31T03:13:05.767Z,19
2016-12-31T03:14:16.093Z,18.62
2016-12-31T03:15:26.025Z,18.81
2016-12-31T03:16:36.744Z,18.52
2016-12-31T03:17:47.473Z,19
2016-12-31T03:18:57.789Z,18.71
2016-12-31T03:20:07.721Z,18.71
2016-12-31T03:21:18.439Z,18.52
2016-12-31T03:22:28.767Z,18.33
2016-12-31T03:23:39.091Z,18.43
2016-12-31T03:24:49.398Z,18.52
2016-12-31T03:26:00.127Z,18.91
2016-12-31T03:27:10.457Z,18.81
2016-12-31T03:28:21.171Z,18.43
2016-12-31T03:29:31.875Z,18.52
2016-12-31T03:30:41.801Z,18.52
2016-12-31T03:31:51.327Z,18.52
2016-12-31T03:33:02.042Z,18.52
2016-12-31T03:34:11.568Z,18.52
2016-12-31T03:35:21.882Z,18.62
2016-12-31T03:36:32.192Z,18.71
2016-12-31T03:37:42.899Z,18.71
2016-12-31T03:38:53.248Z,18.71
2016-12-31T03:40:03.960Z,18.71
2016-12-31T03:41:13.939Z,18.91
2016-12-31T03:42:23.863Z,18.33
2016-12-31T03:43:33.783Z,18.81
2016-12-31T03:44:44.121Z,18.52
2016-12-31T03:45:54.452Z,18.43
2016-12-31T03:47:04.769Z,18.43
2016-12-31T03:48:15.086Z,18.62
2016-12-31T03:49:25.403Z,18.43
2016-12-31T03:50:35.764Z,18.43
2016-12-31T03:51:46.525Z,18.43
2016-12-31T03:52:57.239Z,18.43
2016-12-31T03:54:07.550Z,18.43
2016-12-31T03:55:17.882Z,18.43
2016-12-31T03:56:28.215Z,18.62
2016-12-31T03:57:38.973Z,18.52
2016-12-31T03:58:49.288Z,18.43
2016-12-31T03:59:59.604Z,18.43
2016-12-31T04:01:09.931Z,18.43
2016-12-31T04:02:20.254Z,18.52
2016-12-31T04:03:30.609Z,18.52
2016-12-31T04:04:41.326Z,18.52
2016-12-31T04:05:50.865Z,18.43
2016-12-31T04:07:01.191Z,18.43
2016-12-31T04:08:11.505Z,18.33
2016-12-31T04:09:22.216Z,18.43
2016-12-31T04:10:32.529Z,18.52
2016-12-31T04:11:42.845Z,18.43
2016-12-31T04:12:52.773Z,18.33
2016-12-31T04:14:03.493Z,18.14
2016-12-31T04:15:13.800Z,18.43
2016-12-31T04:16:23.718Z,18.43
2016-12-31T04:17:33.634Z,18.24
2016-12-31T04:18:43.951Z,18.33
2016-12-31T04:19:53.876Z,18.33
2016-12-31T04:21:04.213Z,18.33
2016-12-31T04:22:14.539Z,18.33
2016-12-31T04:23:24.072Z,18.43
2016-12-31T04:24:33.596Z,17.85
2016-12-31T04:25:43.919Z,18.14
2016-12-31T04:26:54.629Z,18.24
2016-12-31T04:28:05.343Z,18.43
2016-12-31T04:29:15.695Z,18.43
2016-12-31T04:30:26.002Z,18.33
2016-12-31T04:31:35.922Z,18.04
2016-12-31T04:32:46.254Z,18.24
2016-12-31T04:33:56.574Z,18.24
2016-12-31T04:35:06.888Z,17.94
2016-12-31T04:36:17.225Z,18.33
2016-12-31T04:37:27.544Z,18.04
2016-12-31T04:38:36.673Z,17.94
2016-12-31T04:39:47.386Z,18.33
2016-12-31T04:40:58.094Z,18.43
2016-12-31T04:42:08.803Z,17.94
2016-12-31T04:43:19.114Z,17.94
2016-12-31T04:44:29.824Z,17.85
2016-12-31T04:45:39.742Z,17.94
2016-12-31T04:46:50.064Z,17.94
2016-12-31T04:48:00.803Z,17.94
2016-12-31T04:49:10.726Z,17.85
2016-12-31T04:50:21.043Z,17.94
2016-12-31T04:51:31.751Z,17.76
2016-12-31T04:52:42.470Z,17.85
2016-12-31T04:53:52.397Z,18.14
2016-12-31T04:55:02.732Z,17.56
2016-12-31T04:56:12.643Z,17.85
2016-12-31T04:57:22.953Z,18.04
2016-12-31T04:58:33.664Z,17.94
2016-12-31T04:59:43.189Z,17.85
2016-12-31T05:00:53.125Z,17.76
2016-12-31T05:02:03.840Z,17.76
2016-12-31T05:03:14.656Z,17.66
2016-12-31T05:04:24.973Z,17.66
2016-12-31T05:05:35.286Z,18.14
2016-12-31T05:06:45.206Z,17.94
2016-12-31T05:07:55.625Z,17.76
2016-12-31T05:09:06.380Z,17.85
2016-12-31T05:10:17.087Z,17.85
2016-12-31T05:11:27.401Z,17.94
2016-12-31T05:12:37.718Z,17.94
2016-12-31T05:13:48.437Z,17.85
2016-12-31T05:14:59.145Z,17.94
2016-12-31T05:16:09.849Z,17.85
2016-12-31T05:17:20.196Z,17.85
2016-12-31T05:18:30.924Z,18.04
2016-12-31T05:19:41.251Z,18.24
2016-12-31T05:20:51.176Z,18.33
2016-12-31T05:22:00.703Z,18.24
2016-12-31T05:23:11.415Z,17.94
2016-12-31T05:24:22.129Z,18.04
2016-12-31T05:25:32.843Z,18.04
2016-12-31T05:26:42.373Z,17.94
2016-12-31T05:27:53.087Z,17.94
2016-12-31T05:29:03.829Z,17.94
2016-12-31T05:30:14.150Z,17.94
2016-12-31T05:31:24.466Z,17.85
2016-12-31T05:32:34.430Z,17.94
2016-12-31T05:33:45.236Z,17.76
2016-12-31T05:34:55.164Z,18.04
2016-12-31T05:36:05.882Z,17.94
2016-12-31T05:37:15.810Z,18.04
2016-12-31T05:38:26.130Z,17.94
2016-12-31T05:39:36.699Z,17.85
2016-12-31T05:40:47.418Z,18.04
2016-12-31T05:41:57.754Z,18.04
2016-12-31T05:43:08.497Z,18.04
2016-12-31T05:44:18.421Z,18.04
2016-12-31T05:45:28.736Z,17.85
2016-12-31T05:46:39.085Z,17.94
2016-12-31T05:47:49.398Z,18.04
2016-12-31T05:49:00.118Z,17.94
2016-12-31T05:50:10.431Z,17.85
2016-12-31T05:51:21.153Z,17.94
2016-12-31T05:52:31.880Z,18.14
2016-12-31T05:53:41.794Z,17.94
2016-12-31T05:54:52.111Z,18.04
2016-12-31T05:56:02.039Z,17.94
2016-12-31T05:57:12.753Z,17.94
2016-12-31T05:58:23.073Z,17.94
2016-12-31T05:59:33.393Z,17.76
2016-12-31T06:00:43.716Z,17.76
2016-12-31T06:01:53.636Z,17.85
2016-12-31T06:03:03.985Z,17.85
2016-12-31T06:04:14.304Z,17.76
2016-12-31T06:05:23.825Z,17.85
2016-12-31T06:06:34.151Z,17.85
2016-12-31T06:07:44.861Z,17.85
2016-12-31T06:08:55.209Z,17.76
2016-12-31T06:10:05.925Z,17.85
2016-12-31T06:11:16.649Z,17.85
2016-12-31T06:12:26.969Z,17.85
2016-12-31T06:13:37.679Z,17.76
2016-12-31T06:14:47.205Z,17.94
2016-12-31T06:15:57.513Z,18.04
2016-12-31T06:17:07.826Z,18.04
2016-12-31T06:18:18.537Z,17.94
2016-12-31T06:19:29.253Z,18.04
2016-12-31T06:20:39.561Z,18.04
2016-12-31T06:21:49.870Z,17.94
2016-12-31T06:23:00.197Z,18.04
2016-12-31T06:24:10.111Z,17.94
2016-12-31T06:25:20.514Z,18.04
2016-12-31T06:26:30.828Z,18.04
2016-12-31T06:27:41.154Z,18.04
2016-12-31T06:28:51.876Z,17.94
2016-12-31T06:30:02.683Z,17.94
2016-12-31T06:31:13.388Z,18.04
2016-12-31T06:32:23.307Z,18.04
2016-12-31T06:33:34.025Z,17.94
2016-12-31T06:34:43.932Z,17.94
2016-12-31T06:35:54.008Z,18.14
2016-12-31T06:37:03.925Z,17.94
2016-12-31T06:38:14.638Z,18.04
2016-12-31T06:39:24.978Z,18.04
2016-12-31T06:40:35.294Z,17.66
2016-12-31T06:41:45.627Z,17.85
2016-12-31T06:42:56.334Z,17.85
2016-12-31T06:44:06.653Z,17.76
2016-12-31T06:45:16.965Z,17.94
2016-12-31T06:46:27.278Z,17.76
2016-12-31T06:47:37.981Z,17.94
2016-12-31T06:48:48.379Z,17.94
2016-12-31T06:49:58.689Z,17.94
2016-12-31T06:51:09.013Z,17.94
2016-12-31T06:52:18.944Z,17.85
2016-12-31T06:53:29.266Z,17.94
2016-12-31T06:54:39.243Z,17.94
2016-12-31T06:55:49.748Z,17.85
2016-12-31T06:57:00.507Z,17.76
2016-12-31T06:58:10.824Z,17.85
2016-12-31T06:59:21.148Z,17.76
2016-12-31T07:00:32.005Z,17.66
2016-12-31T07:01:42.316Z,17.66
2016-12-31T07:02:53.036Z,17.94
2016-12-31T07:04:03.356Z,17.94
2016-12-31T07:05:13.663Z,17.94
2016-12-31T07:06:24.437Z,17.85
2016-12-31T07:07:34.351Z,18.04
2016-12-31T07:08:44.700Z,17.76
2016-12-31T07:09:55.081Z,17.85
2016-12-31T07:11:05.388Z,17.85
2016-12-31T07:12:15.704Z,17.85
2016-12-31T07:13:26.015Z,17.66
2016-12-31T07:14:36.318Z,17.56
2016-12-31T07:15:47.042Z,17.94
2016-12-31T07:16:57.362Z,17.94
2016-12-31T07:18:07.286Z,17.94
2016-12-31T07:19:17.612Z,17.66
2016-12-31T07:20:27.919Z,17.66
2016-12-31T07:21:38.688Z,17.66
2016-12-31T07:22:49.421Z,17.66
2016-12-31T07:23:59.743Z,17.94
2016-12-31T07:25:10.063Z,17.94
2016-12-31T07:26:20.050Z,17.94
2016-12-31T07:27:30.361Z,17.66
2016-12-31T07:28:40.676Z,17.66
2016-12-31T07:29:50.215Z,17.66
2016-12-31T07:31:00.926Z,17.66
2016-12-31T07:32:11.633Z,17.94
2016-12-31T07:33:22.153Z,17.66
2016-12-31T07:34:32.469Z,17.85
2016-12-31T07:35:42.382Z,17.66
2016-12-31T07:36:52.309Z,17.66
2016-12-31T07:38:03.029Z,17.66
2016-12-31T07:39:13.355Z,17.56
2016-12-31T07:40:24.073Z,17.66
2016-12-31T07:41:34.390Z,17.66
2016-12-31T07:42:43.910Z,17.66
2016-12-31T07:43:54.628Z,17.94
2016-12-31T07:45:04.948Z,17.66
2016-12-31T07:46:15.274Z,17.76
2016-12-31T07:47:24.893Z,17.66
2016-12-31T07:48:34.814Z,17.76
2016-12-31T07:49:45.131Z,17.76
2016-12-31T07:50:54.263Z,17.76
2016-12-31T07:52:03.803Z,17.66
2016-12-31T07:53:12.932Z,17.85
2016-12-31T07:54:23.653Z,17.66
2016-12-31T07:55:34.385Z,17.66
2016-12-31T07:56:44.703Z,17.56
2016-12-31T07:57:55.419Z,17.94
2016-12-31T07:59:05.813Z,17.66
2016-12-31T08:00:16.511Z,17.66
2016-12-31T08:01:26.450Z,17.85
2016-12-31T08:02:36.784Z,17.85
2016-12-31T08:03:47.107Z,17.56
2016-12-31T08:04:56.685Z,18.04
2016-12-31T08:06:07.005Z,17.94
2016-12-31T08:07:17.340Z,17.56
2016-12-31T08:08:28.065Z,17.66
2016-12-31T08:09:38.775Z,17.47
2016-12-31T08:10:49.102Z,17.56
2016-12-31T08:11:59.415Z,17.56
2016-12-31T08:13:09.736Z,17.47
2016-12-31T08:14:19.650Z,17.94
2016-12-31T08:15:29.989Z,17.76
2016-12-31T08:16:40.305Z,17.66
2016-12-31T08:17:51.032Z,17.76
2016-12-31T08:19:01.742Z,17.56
2016-12-31T08:20:12.056Z,17.76
2016-12-31T08:21:22.370Z,17.76
2016-12-31T08:22:33.096Z,17.76
2016-12-31T08:23:43.433Z,17.76
2016-12-31T08:24:53.756Z,17.85
2016-12-31T08:26:04.069Z,17.47
2016-12-31T08:27:13.993Z,17.76
2016-12-31T08:28:23.913Z,17.66
2016-12-31T08:29:33.449Z,17.76
2016-12-31T08:30:43.770Z,17.37
2016-12-31T08:31:54.585Z,17.76
2016-12-31T08:33:05.293Z,17.85
2016-12-31T08:34:15.268Z,17.66
2016-12-31T08:35:25.207Z,17.56
2016-12-31T08:36:35.526Z,17.56
2016-12-31T08:37:46.232Z,17.85
2016-12-31T08:38:56.584Z,17.94
2016-12-31T08:40:06.532Z,17.56
2016-12-31T08:41:16.446Z,17.47
2016-12-31T08:42:25.978Z,17.76
2016-12-31T08:43:36.289Z,17.56
2016-12-31T08:44:47.012Z,17.56
2016-12-31T08:45:57.339Z,17.56
2016-12-31T08:47:08.049Z,17.56
2016-12-31T08:48:18.764Z,17.66
2016-12-31T08:49:29.483Z,17.66
2016-12-31T08:50:39.807Z,17.56
2016-12-31T08:51:50.124Z,17.56
2016-12-31T08:53:00.850Z,17.47
2016-12-31T08:54:11.564Z,17.66
2016-12-31T08:55:21.081Z,17.56
2016-12-31T08:56:31.401Z,17.56
2016-12-31T08:57:41.717Z,17.66
2016-12-31T08:58:52.038Z,17.76
2016-12-31T09:00:02.355Z,17.56
2016-12-31T09:01:12.674Z,17.66
2016-12-31T09:02:23.388Z,17.47
2016-12-31T09:03:34.105Z,17.56
2016-12-31T09:04:44.050Z,17.56
2016-12-31T09:05:54.774Z,17.56
2016-12-31T09:07:05.488Z,17.47
2016-12-31T09:08:15.414Z,17.56
2016-12-31T09:09:25.750Z,17.56
2016-12-31T09:10:35.296Z,17.37
2016-12-31T09:11:45.613Z,17.56
2016-12-31T09:12:55.937Z,17.56
2016-12-31T09:14:06.656Z,17.56
2016-12-31T09:15:17.376Z,17.56
2016-12-31T09:16:27.690Z,17.56
2016-12-31T09:17:37.226Z,17.56
2016-12-31T09:18:47.553Z,17.56
2016-12-31T09:19:57.478Z,17.47
2016-12-31T09:21:07.830Z,17.47
2016-12-31T09:22:18.551Z,17.66
2016-12-31T09:23:28.476Z,17.37
2016-12-31T09:24:38.809Z,17.56
2016-12-31T09:25:49.153Z,17.47
2016-12-31T09:26:59.885Z,17.56
2016-12-31T09:28:10.612Z,17.66
2016-12-31T09:29:20.186Z,17.37
2016-12-31T09:30:30.926Z,17.47
2016-12-31T09:31:41.258Z,17.27
2016-12-31T09:32:52.087Z,17.66
2016-12-31T09:34:02.007Z,17.47
2016-12-31T09:35:12.333Z,17.66
2016-12-31T09:36:23.044Z,17.47
2016-12-31T09:37:33.399Z,17.76
2016-12-31T09:38:43.728Z,17.27
2016-12-31T09:39:54.465Z,17.66
2016-12-31T09:41:04.004Z,17.37
2016-12-31T09:42:14.727Z,17.56
2016-12-31T09:43:25.438Z,17.37
2016-12-31T09:44:36.163Z,17.37
2016-12-31T09:45:46.483Z,17.18
2016-12-31T09:46:57.201Z,17.18
2016-12-31T09:48:07.913Z,17.18
2016-12-31T09:49:18.637Z,17.47
2016-12-31T09:50:28.979Z,17.47
2016-12-31T09:51:39.305Z,17.27
2016-12-31T09:52:49.638Z,17.37
2016-12-31T09:54:00.345Z,17.08
2016-12-31T09:55:10.281Z,17.27
2016-12-31T09:56:20.623Z,17.27
2016-12-31T09:57:30.950Z,17.47
2016-12-31T09:58:41.695Z,17.37
2016-12-31T09:59:52.420Z,17.18
2016-12-31T10:01:03.170Z,17.37
2016-12-31T10:02:13.534Z,17.27
2016-12-31T10:03:23.906Z,17.18
2016-12-31T10:04:33.829Z,17.18
2016-12-31T10:05:44.152Z,17.08
2016-12-31T10:06:54.881Z,17.18
2016-12-31T10:08:05.598Z,17.08
2016-12-31T10:09:16.315Z,17.08
2016-12-31T10:10:26.258Z,17.37
2016-12-31T10:11:36.986Z,17.37
2016-12-31T10:12:47.760Z,17.18
2016-12-31T10:13:58.087Z,17.37
2016-12-31T10:15:08.823Z,17.47
2016-12-31T10:16:19.156Z,17.37
2016-12-31T10:17:29.479Z,17.18
2016-12-31T10:18:39.411Z,17.37
2016-12-31T10:19:50.135Z,17.18
2016-12-31T10:21:00.064Z,17.37
2016-12-31T10:22:10.784Z,17.08
2016-12-31T10:23:21.504Z,17.37
2016-12-31T10:24:31.836Z,17.18
2016-12-31T10:25:42.178Z,17.27
2016-12-31T10:26:52.909Z,17.27
2016-12-31T10:28:03.225Z,17.18
2016-12-31T10:29:13.942Z,17.37
2016-12-31T10:30:24.672Z,17.27
2016-12-31T10:31:34.621Z,17.47
2016-12-31T10:32:44.954Z,17.27
2016-12-31T10:33:55.337Z,17.37
2016-12-31T10:35:06.073Z,17.37
2016-12-31T10:36:16.406Z,17.27
2016-12-31T10:37:26.323Z,17.27
2016-12-31T10:38:37.049Z,17.27
2016-12-31T10:39:47.763Z,17.27
2016-12-31T10:40:57.718Z,17.27
2016-12-31T10:42:08.451Z,17.27
2016-12-31T10:43:18.403Z,17.27
2016-12-31T10:44:28.362Z,17.37
2016-12-31T10:45:39.088Z,16.99
2016-12-31T10:46:49.801Z,17.27
2016-12-31T10:48:00.125Z,17.08
2016-12-31T10:49:10.451Z,17.37
2016-12-31T10:50:21.187Z,17.37
2016-12-31T10:51:31.139Z,17.56
2016-12-31T10:52:41.875Z,17.37
2016-12-31T10:53:52.633Z,17.18
2016-12-31T10:55:02.573Z,17.08
2016-12-31T10:56:12.915Z,16.99
2016-12-31T10:57:23.643Z,17.08
2016-12-31T10:58:33.970Z,17.08
2016-12-31T10:59:43.513Z,17.08
2016-12-31T11:00:53.440Z,17.27
2016-12-31T11:02:03.378Z,17.37
2016-12-31T11:03:13.308Z,17.27
2016-12-31T11:04:24.166Z,17.18
2016-12-31T11:05:33.699Z,17.18
2016-12-31T11:06:43.661Z,17.08
2016-12-31T11:07:53.588Z,17.08
2016-12-31T11:09:04.322Z,17.18
2016-12-31T11:10:14.635Z,16.89
2016-12-31T11:11:24.975Z,16.89
2016-12-31T11:12:35.298Z,17.27
2016-12-31T11:13:46.034Z,17.18
2016-12-31T11:14:56.760Z,17.09
2016-12-31T11:16:07.490Z,17.18
2016-12-31T11:17:18.241Z,16.89
2016-12-31T11:18:27.780Z,16.99
2016-12-31T11:19:38.510Z,16.89
2016-12-31T11:20:48.449Z,17.08
2016-12-31T11:21:59.160Z,16.99
2016-12-31T11:23:09.873Z,17.08
2016-12-31T11:24:20.750Z,17.18
2016-12-31T11:25:31.112Z,16.9
2016-12-31T11:26:41.825Z,16.99
2016-12-31T11:27:52.158Z,16.89
2016-12-31T11:29:02.121Z,16.89
2016-12-31T11:30:12.462Z,16.99
2016-12-31T11:31:22.798Z,17.08
2016-12-31T11:32:32.731Z,16.89
2016-12-31T11:33:43.073Z,16.99
2016-12-31T11:34:53.800Z,16.99
2016-12-31T11:36:04.513Z,16.89
2016-12-31T11:37:15.236Z,16.99
2016-12-31T11:38:25.578Z,16.99
2016-12-31T11:39:36.308Z,16.89
2016-12-31T11:40:47.024Z,16.7
2016-12-31T11:41:57.364Z,16.7
2016-12-31T11:43:08.092Z,16.99
2016-12-31T11:44:18.428Z,16.99
2016-12-31T11:45:28.354Z,17.08
2016-12-31T11:46:39.080Z,16.7
2016-12-31T11:47:48.221Z,16.8
2016-12-31T11:48:58.551Z,16.99
2016-12-31T11:50:09.267Z,16.89
2016-12-31T11:51:20.022Z,16.99
2016-12-31T11:52:30.755Z,16.89
2016-12-31T11:53:41.079Z,17.08
2016-12-31T11:54:51.408Z,16.7
2016-12-31T11:56:01.332Z,16.99
2016-12-31T11:57:11.281Z,17.19
2016-12-31T11:58:21.645Z,17.08
2016-12-31T11:59:31.597Z,16.89
2016-12-31T12:00:41.987Z,16.89
2016-12-31T12:01:51.542Z,16.99
2016-12-31T12:03:02.281Z,16.99
2016-12-31T12:04:12.608Z,16.89
2016-12-31T12:05:23.349Z,16.71
2016-12-31T12:06:34.138Z,16.89
2016-12-31T12:07:44.505Z,16.8
2016-12-31T12:08:54.860Z,16.99
2016-12-31T12:10:05.202Z,16.89
2016-12-31T12:11:15.152Z,17.08
2016-12-31T12:12:25.500Z,16.8
2016-12-31T12:13:34.646Z,16.89
2016-12-31T12:14:44.969Z,16.99
2016-12-31T12:15:55.689Z,16.89
2016-12-31T12:17:05.625Z,16.89
2016-12-31T12:18:15.561Z,16.99
2016-12-31T12:19:26.287Z,16.89
2016-12-31T12:20:36.635Z,16.89
2016-12-31T12:21:46.991Z,16.89
2016-12-31T12:22:56.928Z,16.99
2016-12-31T12:24:07.295Z,16.8
2016-12-31T12:25:18.017Z,16.89
2016-12-31T12:26:28.338Z,16.89
2016-12-31T12:27:39.067Z,16.89
2016-12-31T12:28:48.224Z,16.89
2016-12-31T12:29:58.959Z,16.89
2016-12-31T12:31:08.889Z,16.89
2016-12-31T12:32:19.605Z,16.89
2016-12-31T12:33:30.313Z,16.89
2016-12-31T12:34:41.144Z,16.99
2016-12-31T12:35:51.881Z,16.89
2016-12-31T12:37:02.610Z,16.8
2016-12-31T12:38:12.536Z,16.9
2016-12-31T12:39:22.873Z,16.99
2016-12-31T12:40:33.199Z,16.99
2016-12-31T12:41:43.940Z,16.99
2016-12-31T12:42:54.773Z,16.9
2016-12-31T12:44:05.104Z,16.9
2016-12-31T12:45:15.046Z,16.99
2016-12-31T12:46:25.948Z,17.08
2016-12-31T12:47:35.877Z,16.89
2016-12-31T12:48:46.617Z,16.9
2016-12-31T12:49:57.368Z,16.9
2016-12-31T12:51:07.769Z,17.19
2016-12-31T12:52:18.713Z,16.71
2016-12-31T12:53:29.202Z,16.7
2016-12-31T12:54:39.173Z,16.9
2016-12-31T12:55:49.586Z,16.61
2016-12-31T12:56:59.142Z,16.8
2016-12-31T12:58:09.967Z,16.71
2016-12-31T12:59:20.077Z,16.8
2016-12-31T13:00:30.133Z,16.9
2016-12-31T13:01:40.528Z,17.18
2016-12-31T13:02:51.292Z,16.71
2016-12-31T13:04:01.618Z,16.8
2016-12-31T13:05:12.393Z,16.9
2016-12-31T13:06:22.872Z,16.9
2016-12-31T13:07:33.681Z,16.99
2016-12-31T13:08:44.133Z,16.8
2016-12-31T13:09:55.076Z,16.9
2016-12-31T13:11:05.858Z,16.99
2016-12-31T13:12:16.072Z,16.89
2016-12-31T13:13:26.475Z,16.9
2016-12-31T13:14:37.444Z,16.99
2016-12-31T13:15:47.970Z,16.9
2016-12-31T13:16:58.488Z,17.09
2016-12-31T13:18:09.445Z,16.89
2016-12-31T13:19:19.886Z,16.9
2016-12-31T13:20:30.920Z,16.9
2016-12-31T13:21:41.806Z,16.99
2016-12-31T13:22:52.286Z,16.9
2016-12-31T13:24:02.327Z,16.89
2016-12-31T13:25:12.457Z,17.09
2016-12-31T13:26:23.399Z,16.9
2016-12-31T13:27:34.173Z,17.08
2016-12-31T13:28:45.012Z,16.99
2016-12-31T13:29:55.364Z,16.89
2016-12-31T13:31:05.873Z,16.99
2016-12-31T13:32:15.862Z,16.9
2016-12-31T13:33:26.902Z,16.8
2016-12-31T13:34:37.270Z,16.9
2016-12-31T13:35:48.265Z,16.8
2016-12-31T13:36:59.161Z,16.9
2016-12-31T13:38:10.206Z,16.9
2016-12-31T13:39:21.571Z,16.8
2016-12-31T13:40:32.272Z,16.6
2016-12-31T13:41:42.797Z,16.9
2016-12-31T13:42:53.882Z,16.61
2016-12-31T13:44:04.995Z,16.71
2016-12-31T13:45:16.511Z,16.8
2016-12-31T13:46:26.766Z,16.61
2016-12-31T13:47:37.990Z,16.8
2016-12-31T13:48:49.004Z,16.8
2016-12-31T13:50:00.749Z,16.8
2016-12-31T13:51:11.972Z,16.9
2016-12-31T13:52:22.797Z,16.71
2016-12-31T13:53:34.231Z,16.8
2016-12-31T13:54:45.060Z,16.9
2016-12-31T13:55:56.065Z,16.8
2016-12-31T13:57:07.287Z,16.8
2016-12-31T13:58:18.425Z,16.9
2016-12-31T13:59:29.700Z,16.8
2016-12-31T14:00:40.589Z,16.61
2016-12-31T14:01:51.242Z,16.8
2016-12-31T14:03:01.937Z,16.71
2016-12-31T14:04:13.169Z,16.99
2016-12-31T14:05:24.196Z,16.8
2016-12-31T14:06:35.076Z,16.89
2016-12-31T14:07:45.876Z,16.9
2016-12-31T14:08:57.695Z,16.89
2016-12-31T14:10:08.121Z,16.8
2016-12-31T14:11:19.225Z,16.9
2016-12-31T14:12:30.181Z,16.8
2016-12-31T14:13:41.695Z,16.8
2016-12-31T14:14:51.733Z,16.89
2016-12-31T14:16:02.351Z,16.99
2016-12-31T14:17:12.811Z,16.99
2016-12-31T14:18:23.123Z,16.9
2016-12-31T14:19:34.342Z,16.99
2016-12-31T14:20:44.959Z,16.99
2016-12-31T14:21:55.696Z,16.99
2016-12-31T14:23:06.144Z,16.8
2016-12-31T14:24:17.107Z,16.9
2016-12-31T14:25:27.728Z,16.9
2016-12-31T14:26:38.605Z,17.08
2016-12-31T14:27:49.954Z,16.99
2016-12-31T14:29:00.393Z,16.99
2016-12-31T14:30:10.620Z,16.99
2016-12-31T14:31:21.658Z,16.89
2016-12-31T14:32:33.215Z,17.08
2016-12-31T14:33:44.403Z,16.89
2016-12-31T14:34:54.854Z,17.19
2016-12-31T14:36:05.962Z,16.8
2016-12-31T14:37:16.052Z,16.8
2016-12-31T14:38:26.440Z,16.9
2016-12-31T14:39:37.270Z,16.9
2016-12-31T14:40:47.338Z,17.09
2016-12-31T14:41:57.320Z,17.08
2016-12-31T14:43:07.715Z,16.9
2016-12-31T14:44:18.120Z,16.9
2016-12-31T14:45:28.117Z,16.8
2016-12-31T14:46:39.392Z,16.9
2016-12-31T14:47:49.829Z,16.99
2016-12-31T14:49:00.382Z,16.9
2016-12-31T14:50:11.320Z,16.8
2016-12-31T14:51:21.634Z,16.89
2016-12-31T14:52:32.137Z,16.99
2016-12-31T14:53:42.290Z,16.9
2016-12-31T14:54:52.888Z,16.9
2016-12-31T14:56:03.547Z,16.99
2016-12-31T14:57:14.379Z,16.99
2016-12-31T14:58:24.897Z,16.89
2016-12-31T14:59:35.781Z,16.99
2016-12-31T15:00:46.972Z,16.89
2016-12-31T15:01:57.911Z,16.8
2016-12-31T15:03:09.154Z,16.9
2016-12-31T15:04:19.635Z,16.9
2016-12-31T15:05:30.829Z,16.9
2016-12-31T15:06:40.935Z,16.99
2016-12-31T15:07:52.114Z,16.99
2016-12-31T15:09:02.925Z,16.9
2016-12-31T15:10:14.283Z,16.8
2016-12-31T15:11:25.303Z,16.8
2016-12-31T15:12:36.581Z,16.8
2016-12-31T15:13:47.666Z,16.9